sensor_id;sensor_type;location;lat;lon;timestamp;temperature;humidity
14006;DHT22;7078;51.542;7.314;2023-05-03T00:00:38;5.00;99.90
14006;DHT22;7078;51.542;7.314;2023-05-03T00:03:04;5.00;99.90
14006;DHT22;7078;51.542;7.314;2023-05-03T00:05:31;5.00;99.90
14006;DHT22;7078;51.542;7.314;2023-05-03T00:07:56;5.00;99.90
14006;DHT22;7078;51.542;7.314;2023-05-03T00:10:23;5.00;99.90
14006;DHT22;7078;51.542;7.314;2023-05-03T00:12:48;5.00;99.90
14006;DHT22;7078;51.542;7.314;2023-05-03T00:15:14;4.90;99.90
14006;DHT22;7078;51.542;7.314;2023-05-03T00:17:39;4.90;99.90
14006;DHT22;7078;51.542;7.314;2023-05-03T00:20:05;4.90;99.90
14006;DHT22;7078;51.542;7.314;2023-05-03T00:22:32;4.90;99.90
14006;DHT22;7078;51.542;7.314;2023-05-03T00:24:59;4.80;99.90
14006;DHT22;7078;51.542;7.314;2023-05-03T00:27:24;4.70;99.90
14006;DHT22;7078;51.542;7.314;2023-05-03T00:33:37;4.70;99.90
14006;DHT22;7078;51.542;7.314;2023-05-03T00:36:10;4.70;99.90
14006;DHT22;7078;51.542;7.314;2023-05-03T00:38:36;4.70;99.90
14006;DHT22;7078;51.542;7.314;2023-05-03T00:41:02;4.60;99.90
14006;DHT22;7078;51.542;7.314;2023-05-03T00:43:28;4.60;99.90
14006;DHT22;7078;51.542;7.314;2023-05-03T00:45:54;4.60;99.90
14006;DHT22;7078;51.542;7.314;2023-05-03T00:48:19;4.60;99.90
14006;DHT22;7078;51.542;7.314;2023-05-03T00:50:46;4.60;99.90
14006;DHT22;7078;51.542;7.314;2023-05-03T00:53:12;4.50;99.90
14006;DHT22;7078;51.542;7.314;2023-05-03T00:55:38;4.50;99.90
14006;DHT22;7078;51.542;7.314;2023-05-03T00:58:05;4.50;99.90
14006;DHT22;7078;51.542;7.314;2023-05-03T01:00:31;4.50;99.90
14006;DHT22;7078;51.542;7.314;2023-05-03T01:02:56;4.50;99.90
14006;DHT22;7078;51.542;7.314;2023-05-03T01:05:22;4.40;99.90
14006;DHT22;7078;51.542;7.314;2023-05-03T01:08:04;4.40;99.90
14006;DHT22;7078;51.542;7.314;2023-05-03T01:10:47;4.40;99.90
14006;DHT22;7078;51.542;7.314;2023-05-03T01:13:21;4.40;99.90
14006;DHT22;7078;51.542;7.314;2023-05-03T01:18:53;4.40;99.90
14006;DHT22;7078;51.542;7.314;2023-05-03T01:21:20;4.30;99.90
14006;DHT22;7078;51.542;7.314;2023-05-03T01:24:03;4.30;99.90
14006;DHT22;7078;51.542;7.314;2023-05-03T01:26:31;4.30;99.90
14006;DHT22;7078;51.542;7.314;2023-05-03T01:28:57;4.20;99.90
14006;DHT22;7078;51.542;7.314;2023-05-03T01:31:44;4.30;99.90
14006;DHT22;7078;51.542;7.314;2023-05-03T01:34:27;4.20;99.90
14006;DHT22;7078;51.542;7.314;2023-05-03T01:36:56;4.20;99.90
14006;DHT22;7078;51.542;7.314;2023-05-03T01:39:26;4.20;99.90
14006;DHT22;7078;51.542;7.314;2023-05-03T01:41:54;4.20;99.90
14006;DHT22;7078;51.542;7.314;2023-05-03T01:44:21;4.20;99.90
14006;DHT22;7078;51.542;7.314;2023-05-03T01:46:47;4.20;99.90
14006;DHT22;7078;51.542;7.314;2023-05-03T01:49:14;4.20;99.90
14006;DHT22;7078;51.542;7.314;2023-05-03T01:51:39;4.20;99.90
14006;DHT22;7078;51.542;7.314;2023-05-03T01:54:05;4.10;99.90
14006;DHT22;7078;51.542;7.314;2023-05-03T01:56:33;4.10;99.90
14006;DHT22;7078;51.542;7.314;2023-05-03T01:59:00;4.10;99.90
14006;DHT22;7078;51.542;7.314;2023-05-03T02:01:25;4.10;99.90
14006;DHT22;7078;51.542;7.314;2023-05-03T02:03:51;4.10;99.90
14006;DHT22;7078;51.542;7.314;2023-05-03T02:06:17;4.10;99.90
14006;DHT22;7078;51.542;7.314;2023-05-03T02:08:42;4.20;99.90
14006;DHT22;7078;51.542;7.314;2023-05-03T02:11:08;4.10;99.90
14006;DHT22;7078;51.542;7.314;2023-05-03T02:13:35;4.10;99.90
14006;DHT22;7078;51.542;7.314;2023-05-03T02:16:00;4.10;99.90
14006;DHT22;7078;51.542;7.314;2023-05-03T02:18:26;4.10;99.90
14006;DHT22;7078;51.542;7.314;2023-05-03T02:20:55;4.10;99.90
14006;DHT22;7078;51.542;7.314;2023-05-03T02:23:22;4.00;99.90
14006;DHT22;7078;51.542;7.314;2023-05-03T02:25:47;4.00;99.90
14006;DHT22;7078;51.542;7.314;2023-05-03T02:28:14;4.10;99.90
14006;DHT22;7078;51.542;7.314;2023-05-03T02:30:39;4.00;99.90
14006;DHT22;7078;51.542;7.314;2023-05-03T02:33:05;4.00;99.90
14006;DHT22;7078;51.542;7.314;2023-05-03T02:35:31;4.00;99.90
14006;DHT22;7078;51.542;7.314;2023-05-03T02:37:56;4.00;99.90
14006;DHT22;7078;51.542;7.314;2023-05-03T02:40:22;3.90;99.90
14006;DHT22;7078;51.542;7.314;2023-05-03T02:42:47;4.00;99.90
14006;DHT22;7078;51.542;7.314;2023-05-03T02:45:13;4.00;99.90
14006;DHT22;7078;51.542;7.314;2023-05-03T02:47:39;4.00;99.90
14006;DHT22;7078;51.542;7.314;2023-05-03T02:50:05;4.00;99.90
14006;DHT22;7078;51.542;7.314;2023-05-03T02:52:31;4.00;99.90
14006;DHT22;7078;51.542;7.314;2023-05-03T02:54:56;4.00;99.90
14006;DHT22;7078;51.542;7.314;2023-05-03T02:57:22;4.10;99.90
14006;DHT22;7078;51.542;7.314;2023-05-03T02:59:47;4.10;99.90
14006;DHT22;7078;51.542;7.314;2023-05-03T03:02:13;4.10;99.90
14006;DHT22;7078;51.542;7.314;2023-05-03T03:04:39;4.00;99.90
14006;DHT22;7078;51.542;7.314;2023-05-03T03:07:04;4.10;99.90
14006;DHT22;7078;51.542;7.314;2023-05-03T03:09:30;4.10;99.90
14006;DHT22;7078;51.542;7.314;2023-05-03T03:11:55;4.10;99.90
14006;DHT22;7078;51.542;7.314;2023-05-03T03:14:21;4.10;99.90
14006;DHT22;7078;51.542;7.314;2023-05-03T03:16:49;4.10;99.90
14006;DHT22;7078;51.542;7.314;2023-05-03T03:19:15;4.20;99.90
14006;DHT22;7078;51.542;7.314;2023-05-03T03:21:40;4.10;99.90
14006;DHT22;7078;51.542;7.314;2023-05-03T03:24:06;4.10;99.90
14006;DHT22;7078;51.542;7.314;2023-05-03T03:26:31;4.10;99.90
14006;DHT22;7078;51.542;7.314;2023-05-03T03:28:57;4.20;99.90
14006;DHT22;7078;51.542;7.314;2023-05-03T03:31:22;4.20;99.90
14006;DHT22;7078;51.542;7.314;2023-05-03T03:33:50;4.10;99.90
14006;DHT22;7078;51.542;7.314;2023-05-03T03:36:15;4.10;99.90
14006;DHT22;7078;51.542;7.314;2023-05-03T03:38:41;4.10;99.90
14006;DHT22;7078;51.542;7.314;2023-05-03T03:41:07;4.10;99.90
14006;DHT22;7078;51.542;7.314;2023-05-03T03:43:32;4.10;99.90
14006;DHT22;7078;51.542;7.314;2023-05-03T03:45:58;4.00;99.90
14006;DHT22;7078;51.542;7.314;2023-05-03T03:48:24;4.00;99.90
14006;DHT22;7078;51.542;7.314;2023-05-03T03:50:50;4.00;99.90
14006;DHT22;7078;51.542;7.314;2023-05-03T03:53:15;4.10;99.90
14006;DHT22;7078;51.542;7.314;2023-05-03T03:55:41;4.00;99.90
14006;DHT22;7078;51.542;7.314;2023-05-03T03:58:07;4.00;99.90
14006;DHT22;7078;51.542;7.314;2023-05-03T04:00:33;3.90;99.90
14006;DHT22;7078;51.542;7.314;2023-05-03T04:02:59;3.90;99.90
14006;DHT22;7078;51.542;7.314;2023-05-03T04:05:24;4.00;99.90
14006;DHT22;7078;51.542;7.314;2023-05-03T04:07:50;3.90;99.90
14006;DHT22;7078;51.542;7.314;2023-05-03T04:10:15;3.90;99.90
14006;DHT22;7078;51.542;7.314;2023-05-03T04:12:41;4.00;99.90
14006;DHT22;7078;51.542;7.314;2023-05-03T04:15:07;3.90;99.90
14006;DHT22;7078;51.542;7.314;2023-05-03T04:17:33;3.90;99.90
14006;DHT22;7078;51.542;7.314;2023-05-03T04:20:00;3.90;99.90
14006;DHT22;7078;51.542;7.314;2023-05-03T04:22:28;4.00;99.90
14006;DHT22;7078;51.542;7.314;2023-05-03T04:24:55;4.00;99.90
14006;DHT22;7078;51.542;7.314;2023-05-03T04:27:20;4.00;99.90
14006;DHT22;7078;51.542;7.314;2023-05-03T04:29:46;4.10;99.90
14006;DHT22;7078;51.542;7.314;2023-05-03T04:32:12;4.10;99.90
14006;DHT22;7078;51.542;7.314;2023-05-03T04:34:38;4.20;99.90
14006;DHT22;7078;51.542;7.314;2023-05-03T04:37:04;4.20;99.90
14006;DHT22;7078;51.542;7.314;2023-05-03T04:39:29;4.30;99.90
14006;DHT22;7078;51.542;7.314;2023-05-03T04:41:56;4.30;99.90
14006;DHT22;7078;51.542;7.314;2023-05-03T04:44:22;4.40;99.90
14006;DHT22;7078;51.542;7.314;2023-05-03T04:46:47;4.50;99.90
14006;DHT22;7078;51.542;7.314;2023-05-03T04:49:14;4.50;99.90
14006;DHT22;7078;51.542;7.314;2023-05-03T04:51:39;4.50;99.90
14006;DHT22;7078;51.542;7.314;2023-05-03T04:54:05;4.60;99.90
14006;DHT22;7078;51.542;7.314;2023-05-03T04:56:31;4.60;99.90
14006;DHT22;7078;51.542;7.314;2023-05-03T04:58:59;4.70;99.90
14006;DHT22;7078;51.542;7.314;2023-05-03T05:01:25;4.70;99.90
14006;DHT22;7078;51.542;7.314;2023-05-03T05:03:52;4.80;99.90
14006;DHT22;7078;51.542;7.314;2023-05-03T05:06:18;4.80;99.90
14006;DHT22;7078;51.542;7.314;2023-05-03T05:08:44;4.90;99.90
14006;DHT22;7078;51.542;7.314;2023-05-03T05:11:10;4.90;99.90
14006;DHT22;7078;51.542;7.314;2023-05-03T05:13:38;5.00;99.90
14006;DHT22;7078;51.542;7.314;2023-05-03T05:16:04;5.10;99.90
14006;DHT22;7078;51.542;7.314;2023-05-03T05:18:29;5.10;99.90
14006;DHT22;7078;51.542;7.314;2023-05-03T05:20:55;5.20;99.90
14006;DHT22;7078;51.542;7.314;2023-05-03T05:23:20;5.30;99.90
14006;DHT22;7078;51.542;7.314;2023-05-03T05:25:46;5.30;99.90
14006;DHT22;7078;51.542;7.314;2023-05-03T05:28:12;5.40;99.90
14006;DHT22;7078;51.542;7.314;2023-05-03T05:30:37;5.50;99.90
14006;DHT22;7078;51.542;7.314;2023-05-03T05:33:03;5.60;99.90
14006;DHT22;7078;51.542;7.314;2023-05-03T05:35:28;5.70;99.90
14006;DHT22;7078;51.542;7.314;2023-05-03T05:37:54;5.80;99.90
14006;DHT22;7078;51.542;7.314;2023-05-03T05:40:20;5.90;99.90
14006;DHT22;7078;51.542;7.314;2023-05-03T05:42:45;6.00;99.90
14006;DHT22;7078;51.542;7.314;2023-05-03T05:45:12;6.10;99.90
14006;DHT22;7078;51.542;7.314;2023-05-03T05:47:38;6.20;99.90
14006;DHT22;7078;51.542;7.314;2023-05-03T05:50:04;6.30;99.90
14006;DHT22;7078;51.542;7.314;2023-05-03T05:52:31;6.30;99.90
14006;DHT22;7078;51.542;7.314;2023-05-03T05:54:56;6.40;99.90
14006;DHT22;7078;51.542;7.314;2023-05-03T05:57:22;6.50;99.90
14006;DHT22;7078;51.542;7.314;2023-05-03T05:59:47;6.60;99.90
14006;DHT22;7078;51.542;7.314;2023-05-03T06:02:14;6.80;99.90
14006;DHT22;7078;51.542;7.314;2023-05-03T06:04:47;6.90;99.90
14006;DHT22;7078;51.542;7.314;2023-05-03T06:07:13;7.00;99.90
14006;DHT22;7078;51.542;7.314;2023-05-03T06:09:40;7.10;99.90
14006;DHT22;7078;51.542;7.314;2023-05-03T06:12:06;7.20;99.90
14006;DHT22;7078;51.542;7.314;2023-05-03T06:14:32;7.20;99.90
14006;DHT22;7078;51.542;7.314;2023-05-03T06:16:57;7.20;99.90
14006;DHT22;7078;51.542;7.314;2023-05-03T06:19:24;7.30;99.90
14006;DHT22;7078;51.542;7.314;2023-05-03T06:21:50;7.30;99.90
14006;DHT22;7078;51.542;7.314;2023-05-03T06:24:16;7.30;99.90
14006;DHT22;7078;51.542;7.314;2023-05-03T06:26:45;7.50;99.90
14006;DHT22;7078;51.542;7.314;2023-05-03T06:29:11;7.50;99.90
14006;DHT22;7078;51.542;7.314;2023-05-03T06:31:37;7.60;99.90
14006;DHT22;7078;51.542;7.314;2023-05-03T06:34:02;7.70;99.90
14006;DHT22;7078;51.542;7.314;2023-05-03T06:36:28;7.80;99.90
14006;DHT22;7078;51.542;7.314;2023-05-03T06:38:55;7.80;99.90
14006;DHT22;7078;51.542;7.314;2023-05-03T06:41:21;7.90;99.90
14006;DHT22;7078;51.542;7.314;2023-05-03T06:43:46;7.90;99.90
14006;DHT22;7078;51.542;7.314;2023-05-03T06:46:12;8.10;99.90
14006;DHT22;7078;51.542;7.314;2023-05-03T06:48:37;8.20;99.90
14006;DHT22;7078;51.542;7.314;2023-05-03T06:51:03;8.30;99.90
14006;DHT22;7078;51.542;7.314;2023-05-03T06:53:29;8.40;99.90
14006;DHT22;7078;51.542;7.314;2023-05-03T06:55:55;8.50;99.90
14006;DHT22;7078;51.542;7.314;2023-05-03T06:58:20;8.60;99.90
14006;DHT22;7078;51.542;7.314;2023-05-03T07:00:46;8.50;99.90
14006;DHT22;7078;51.542;7.314;2023-05-03T07:03:11;8.60;99.90
14006;DHT22;7078;51.542;7.314;2023-05-03T07:05:37;8.80;99.90
14006;DHT22;7078;51.542;7.314;2023-05-03T07:08:02;8.90;99.90
14006;DHT22;7078;51.542;7.314;2023-05-03T07:10:28;9.00;99.90
14006;DHT22;7078;51.542;7.314;2023-05-03T07:12:55;9.00;99.90
14006;DHT22;7078;51.542;7.314;2023-05-03T07:15:21;9.10;99.90
14006;DHT22;7078;51.542;7.314;2023-05-03T07:17:46;9.10;99.90
14006;DHT22;7078;51.542;7.314;2023-05-03T07:20:12;9.20;99.90
14006;DHT22;7078;51.542;7.314;2023-05-03T07:22:38;9.20;99.90
14006;DHT22;7078;51.542;7.314;2023-05-03T07:25:03;9.30;99.90
14006;DHT22;7078;51.542;7.314;2023-05-03T07:27:29;9.40;99.90
14006;DHT22;7078;51.542;7.314;2023-05-03T07:29:55;9.60;99.90
14006;DHT22;7078;51.542;7.314;2023-05-03T07:32:21;9.80;99.90
14006;DHT22;7078;51.542;7.314;2023-05-03T07:34:47;9.90;99.90
14006;DHT22;7078;51.542;7.314;2023-05-03T07:37:12;9.90;99.90
14006;DHT22;7078;51.542;7.314;2023-05-03T07:39:38;9.90;99.90
14006;DHT22;7078;51.542;7.314;2023-05-03T07:42:04;10.00;99.90
14006;DHT22;7078;51.542;7.314;2023-05-03T07:44:30;10.00;99.90
14006;DHT22;7078;51.542;7.314;2023-05-03T07:46:56;10.00;99.90
14006;DHT22;7078;51.542;7.314;2023-05-03T07:49:21;10.10;99.90
14006;DHT22;7078;51.542;7.314;2023-05-03T07:51:47;10.20;99.90
14006;DHT22;7078;51.542;7.314;2023-05-03T07:54:12;10.30;99.90
14006;DHT22;7078;51.542;7.314;2023-05-03T07:56:38;10.40;99.90
14006;DHT22;7078;51.542;7.314;2023-05-03T07:59:03;10.50;99.90
14006;DHT22;7078;51.542;7.314;2023-05-03T08:01:29;10.60;99.90
14006;DHT22;7078;51.542;7.314;2023-05-03T08:03:54;10.70;99.90
14006;DHT22;7078;51.542;7.314;2023-05-03T08:06:20;10.90;99.90
14006;DHT22;7078;51.542;7.314;2023-05-03T08:08:45;11.00;99.90
14006;DHT22;7078;51.542;7.314;2023-05-03T08:11:11;11.00;99.90
14006;DHT22;7078;51.542;7.314;2023-05-03T08:13:37;11.00;99.90
14006;DHT22;7078;51.542;7.314;2023-05-03T08:16:03;11.20;99.00
14006;DHT22;7078;51.542;7.314;2023-05-03T08:18:29;11.20;95.30
14006;DHT22;7078;51.542;7.314;2023-05-03T08:20:54;11.30;95.80
14006;DHT22;7078;51.542;7.314;2023-05-03T08:23:20;11.30;93.80
14006;DHT22;7078;51.542;7.314;2023-05-03T08:25:49;11.40;94.90
14006;DHT22;7078;51.542;7.314;2023-05-03T08:28:15;11.40;92.60
14006;DHT22;7078;51.542;7.314;2023-05-03T08:30:40;11.50;92.50
14006;DHT22;7078;51.542;7.314;2023-05-03T08:33:06;11.60;91.20
14006;DHT22;7078;51.542;7.314;2023-05-03T08:35:34;11.70;90.00
14006;DHT22;7078;51.542;7.314;2023-05-03T08:38:00;11.60;93.30
14006;DHT22;7078;51.542;7.314;2023-05-03T08:40:26;11.40;92.50
14006;DHT22;7078;51.542;7.314;2023-05-03T08:42:54;11.40;94.20
14006;DHT22;7078;51.542;7.314;2023-05-03T08:45:22;11.40;92.50
14006;DHT22;7078;51.542;7.314;2023-05-03T08:47:52;11.30;92.20
14006;DHT22;7078;51.542;7.314;2023-05-03T08:50:19;11.30;93.90
14006;DHT22;7078;51.542;7.314;2023-05-03T08:52:45;11.40;95.90
14006;DHT22;7078;51.542;7.314;2023-05-03T08:55:11;11.50;93.30
14006;DHT22;7078;51.542;7.314;2023-05-03T08:57:36;11.60;92.20
14006;DHT22;7078;51.542;7.314;2023-05-03T09:00:03;11.70;90.90
14006;DHT22;7078;51.542;7.314;2023-05-03T09:02:35;11.80;90.40
14006;DHT22;7078;51.542;7.314;2023-05-03T09:05:04;11.80;88.70
14006;DHT22;7078;51.542;7.314;2023-05-03T09:07:30;11.90;90.80
14006;DHT22;7078;51.542;7.314;2023-05-03T09:09:55;11.90;88.10
14006;DHT22;7078;51.542;7.314;2023-05-03T09:12:36;12.00;89.10
14006;DHT22;7078;51.542;7.314;2023-05-03T09:15:05;11.90;87.10
14006;DHT22;7078;51.542;7.314;2023-05-03T09:17:31;12.00;92.20
14006;DHT22;7078;51.542;7.314;2023-05-03T09:19:57;12.10;88.00
14006;DHT22;7078;51.542;7.314;2023-05-03T09:22:25;12.20;89.10
14006;DHT22;7078;51.542;7.314;2023-05-03T09:24:52;12.20;83.30
14006;DHT22;7078;51.542;7.314;2023-05-03T09:27:19;12.30;85.50
14006;DHT22;7078;51.542;7.314;2023-05-03T09:29:46;12.30;85.80
14006;DHT22;7078;51.542;7.314;2023-05-03T09:32:12;12.20;83.10
14006;DHT22;7078;51.542;7.314;2023-05-03T09:34:37;12.30;81.80
14006;DHT22;7078;51.542;7.314;2023-05-03T09:37:03;12.30;82.00
14006;DHT22;7078;51.542;7.314;2023-05-03T09:39:29;12.30;81.90
14006;DHT22;7078;51.542;7.314;2023-05-03T09:41:55;12.50;82.70
14006;DHT22;7078;51.542;7.314;2023-05-03T09:44:40;12.60;80.60
14006;DHT22;7078;51.542;7.314;2023-05-03T09:47:06;12.60;79.10
14006;DHT22;7078;51.542;7.314;2023-05-03T09:49:33;12.80;78.60
14006;DHT22;7078;51.542;7.314;2023-05-03T09:51:59;12.70;80.80
14006;DHT22;7078;51.542;7.314;2023-05-03T09:54:25;12.70;84.00
14006;DHT22;7078;51.542;7.314;2023-05-03T09:56:53;12.80;79.90
14006;DHT22;7078;51.542;7.314;2023-05-03T09:59:19;13.00;82.10
14006;DHT22;7078;51.542;7.314;2023-05-03T10:01:45;13.10;76.70
14006;DHT22;7078;51.542;7.314;2023-05-03T10:04:14;13.10;77.00
14006;DHT22;7078;51.542;7.314;2023-05-03T10:06:40;13.00;74.80
14006;DHT22;7078;51.542;7.314;2023-05-03T10:09:20;12.90;77.00
14006;DHT22;7078;51.542;7.314;2023-05-03T10:11:51;13.00;78.20
14006;DHT22;7078;51.542;7.314;2023-05-03T10:14:19;13.10;74.40
14006;DHT22;7078;51.542;7.314;2023-05-03T10:16:48;13.20;72.30
14006;DHT22;7078;51.542;7.314;2023-05-03T10:19:21;13.20;73.00
14006;DHT22;7078;51.542;7.314;2023-05-03T10:22:05;13.10;70.40
14006;DHT22;7078;51.542;7.314;2023-05-03T10:24:32;13.20;73.60
14006;DHT22;7078;51.542;7.314;2023-05-03T10:26:59;13.20;75.20
14006;DHT22;7078;51.542;7.314;2023-05-03T10:32:00;13.40;68.10
14006;DHT22;7078;51.542;7.314;2023-05-03T10:34:31;13.40;72.20
14006;DHT22;7078;51.542;7.314;2023-05-03T10:37:07;13.60;73.40
14006;DHT22;7078;51.542;7.314;2023-05-03T10:39:34;13.80;71.00
14006;DHT22;7078;51.542;7.314;2023-05-03T10:42:07;13.70;71.70
14006;DHT22;7078;51.542;7.314;2023-05-03T10:44:49;13.80;74.30
14006;DHT22;7078;51.542;7.314;2023-05-03T10:47:17;13.90;70.90
14006;DHT22;7078;51.542;7.314;2023-05-03T10:49:44;14.30;69.80
14006;DHT22;7078;51.542;7.314;2023-05-03T10:55:11;14.30;66.90
14006;DHT22;7078;51.542;7.314;2023-05-03T10:57:40;14.30;66.70
14006;DHT22;7078;51.542;7.314;2023-05-03T11:05:35;14.30;64.60
14006;DHT22;7078;51.542;7.314;2023-05-03T11:10:33;14.40;62.70
14006;DHT22;7078;51.542;7.314;2023-05-03T11:12:58;14.40;64.70
14006;DHT22;7078;51.542;7.314;2023-05-03T11:15:24;14.40;64.10
14006;DHT22;7078;51.542;7.314;2023-05-03T11:17:49;14.40;63.30
14006;DHT22;7078;51.542;7.314;2023-05-03T11:20:15;14.30;65.10
14006;DHT22;7078;51.542;7.314;2023-05-03T11:22:41;14.30;63.00
14006;DHT22;7078;51.542;7.314;2023-05-03T11:25:07;14.40;61.00
14006;DHT22;7078;51.542;7.314;2023-05-03T11:27:32;14.60;62.30
14006;DHT22;7078;51.542;7.314;2023-05-03T11:29:58;14.90;62.00
14006;DHT22;7078;51.542;7.314;2023-05-03T11:32:27;15.00;59.90
14006;DHT22;7078;51.542;7.314;2023-05-03T11:34:54;15.00;61.30
14006;DHT22;7078;51.542;7.314;2023-05-03T11:37:20;15.10;60.60
14006;DHT22;7078;51.542;7.314;2023-05-03T11:39:46;15.20;59.80
14006;DHT22;7078;51.542;7.314;2023-05-03T11:42:12;15.30;58.50
14006;DHT22;7078;51.542;7.314;2023-05-03T11:44:38;15.40;58.10
14006;DHT22;7078;51.542;7.314;2023-05-03T11:47:03;15.40;57.90
14006;DHT22;7078;51.542;7.314;2023-05-03T11:49:29;15.40;56.70
14006;DHT22;7078;51.542;7.314;2023-05-03T11:51:55;15.30;58.20
14006;DHT22;7078;51.542;7.314;2023-05-03T11:54:21;15.30;57.40
14006;DHT22;7078;51.542;7.314;2023-05-03T11:56:47;15.20;57.70
14006;DHT22;7078;51.542;7.314;2023-05-03T11:59:13;15.30;59.90
14006;DHT22;7078;51.542;7.314;2023-05-03T12:01:40;15.50;60.80
14006;DHT22;7078;51.542;7.314;2023-05-03T12:04:06;15.50;56.70
14006;DHT22;7078;51.542;7.314;2023-05-03T12:06:33;15.50;58.00
14006;DHT22;7078;51.542;7.314;2023-05-03T12:08:59;15.70;56.30
14006;DHT22;7078;51.542;7.314;2023-05-03T12:11:25;15.80;57.80
14006;DHT22;7078;51.542;7.314;2023-05-03T12:13:57;15.90;55.90
14006;DHT22;7078;51.542;7.314;2023-05-03T12:16:23;15.90;58.20
14006;DHT22;7078;51.542;7.314;2023-05-03T12:18:57;16.10;55.80
14006;DHT22;7078;51.542;7.314;2023-05-03T12:21:46;16.20;56.30
14006;DHT22;7078;51.542;7.314;2023-05-03T12:24:11;16.30;54.50
14006;DHT22;7078;51.542;7.314;2023-05-03T12:26:42;16.20;54.80
14006;DHT22;7078;51.542;7.314;2023-05-03T12:29:08;16.20;54.80
14006;DHT22;7078;51.542;7.314;2023-05-03T12:31:33;16.20;56.20
14006;DHT22;7078;51.542;7.314;2023-05-03T12:33:59;16.30;54.10
14006;DHT22;7078;51.542;7.314;2023-05-03T12:36:24;16.30;53.70
14006;DHT22;7078;51.542;7.314;2023-05-03T12:38:50;16.40;52.60
14006;DHT22;7078;51.542;7.314;2023-05-03T12:41:16;16.50;51.80
14006;DHT22;7078;51.542;7.314;2023-05-03T12:43:41;16.40;54.10
14006;DHT22;7078;51.542;7.314;2023-05-03T12:46:07;16.40;53.70
14006;DHT22;7078;51.542;7.314;2023-05-03T12:48:32;16.60;55.00
14006;DHT22;7078;51.542;7.314;2023-05-03T12:50:58;16.70;54.00
14006;DHT22;7078;51.542;7.314;2023-05-03T12:53:24;16.80;54.30
14006;DHT22;7078;51.542;7.314;2023-05-03T12:55:50;16.80;53.80
14006;DHT22;7078;51.542;7.314;2023-05-03T12:58:16;17.00;54.60
14006;DHT22;7078;51.542;7.314;2023-05-03T13:00:43;17.00;54.00
14006;DHT22;7078;51.542;7.314;2023-05-03T13:03:09;17.10;53.70
14006;DHT22;7078;51.542;7.314;2023-05-03T13:05:34;17.10;52.30
14006;DHT22;7078;51.542;7.314;2023-05-03T13:08:00;17.00;52.70
14006;DHT22;7078;51.542;7.314;2023-05-03T13:10:26;17.00;51.90
14006;DHT22;7078;51.542;7.314;2023-05-03T13:12:54;17.00;52.40
14006;DHT22;7078;51.542;7.314;2023-05-03T13:15:19;17.10;51.70
14006;DHT22;7078;51.542;7.314;2023-05-03T13:17:45;17.10;51.30
14006;DHT22;7078;51.542;7.314;2023-05-03T13:20:11;17.20;52.70
14006;DHT22;7078;51.542;7.314;2023-05-03T13:22:37;17.30;52.50
14006;DHT22;7078;51.542;7.314;2023-05-03T13:25:03;17.40;53.50
14006;DHT22;7078;51.542;7.314;2023-05-03T13:27:29;17.40;49.50
14006;DHT22;7078;51.542;7.314;2023-05-03T13:29:55;17.30;51.60
14006;DHT22;7078;51.542;7.314;2023-05-03T13:32:20;17.40;52.20
14006;DHT22;7078;51.542;7.314;2023-05-03T13:34:46;17.30;51.30
14006;DHT22;7078;51.542;7.314;2023-05-03T13:37:11;17.50;51.00
14006;DHT22;7078;51.542;7.314;2023-05-03T13:39:42;17.60;50.70
14006;DHT22;7078;51.542;7.314;2023-05-03T13:42:08;17.60;50.30
14006;DHT22;7078;51.542;7.314;2023-05-03T13:44:34;17.70;49.50
14006;DHT22;7078;51.542;7.314;2023-05-03T13:46:59;17.70;51.00
14006;DHT22;7078;51.542;7.314;2023-05-03T13:49:25;17.80;49.40
14006;DHT22;7078;51.542;7.314;2023-05-03T13:51:51;17.90;49.50
14006;DHT22;7078;51.542;7.314;2023-05-03T13:54:16;17.80;49.90
14006;DHT22;7078;51.542;7.314;2023-05-03T13:56:42;17.80;48.00
14006;DHT22;7078;51.542;7.314;2023-05-03T13:59:09;17.70;50.10
14006;DHT22;7078;51.542;7.314;2023-05-03T14:01:35;17.80;50.90
14006;DHT22;7078;51.542;7.314;2023-05-03T14:04:02;17.90;50.00
14006;DHT22;7078;51.542;7.314;2023-05-03T14:06:28;17.70;51.00
14006;DHT22;7078;51.542;7.314;2023-05-03T14:08:54;17.80;49.60
14006;DHT22;7078;51.542;7.314;2023-05-03T14:11:20;17.80;51.30
14006;DHT22;7078;51.542;7.314;2023-05-03T14:13:49;17.70;50.10
14006;DHT22;7078;51.542;7.314;2023-05-03T14:16:15;17.60;50.00
14006;DHT22;7078;51.542;7.314;2023-05-03T14:18:41;17.70;51.00
14006;DHT22;7078;51.542;7.314;2023-05-03T14:21:07;17.80;50.70
14006;DHT22;7078;51.542;7.314;2023-05-03T14:23:32;18.00;49.50
14006;DHT22;7078;51.542;7.314;2023-05-03T14:25:57;18.20;50.50
14006;DHT22;7078;51.542;7.314;2023-05-03T14:28:23;18.40;51.10
14006;DHT22;7078;51.542;7.314;2023-05-03T14:30:49;18.60;48.90
14006;DHT22;7078;51.542;7.314;2023-05-03T14:33:15;18.90;49.30
14006;DHT22;7078;51.542;7.314;2023-05-03T14:35:41;19.00;48.80
14006;DHT22;7078;51.542;7.314;2023-05-03T14:38:07;19.20;47.90
14006;DHT22;7078;51.542;7.314;2023-05-03T14:40:32;19.10;48.00
14006;DHT22;7078;51.542;7.314;2023-05-03T14:42:58;19.20;50.10
14006;DHT22;7078;51.542;7.314;2023-05-03T14:45:23;19.40;47.30
14006;DHT22;7078;51.542;7.314;2023-05-03T14:47:49;19.40;48.60
14006;DHT22;7078;51.542;7.314;2023-05-03T14:50:15;19.40;47.50
14006;DHT22;7078;51.542;7.314;2023-05-03T14:52:41;19.50;47.60
14006;DHT22;7078;51.542;7.314;2023-05-03T14:55:07;19.60;49.70
14006;DHT22;7078;51.542;7.314;2023-05-03T14:57:33;19.60;48.00
14006;DHT22;7078;51.542;7.314;2023-05-03T15:00:02;19.80;48.70
14006;DHT22;7078;51.542;7.314;2023-05-03T15:02:28;20.00;47.60
14006;DHT22;7078;51.542;7.314;2023-05-03T15:04:53;20.00;45.80
14006;DHT22;7078;51.542;7.314;2023-05-03T15:07:19;19.90;44.90
14006;DHT22;7078;51.542;7.314;2023-05-03T15:09:45;19.90;46.50
14006;DHT22;7078;51.542;7.314;2023-05-03T15:12:11;19.80;46.60
14006;DHT22;7078;51.542;7.314;2023-05-03T15:14:36;20.10;45.90
14006;DHT22;7078;51.542;7.314;2023-05-03T15:17:02;20.50;45.80
14006;DHT22;7078;51.542;7.314;2023-05-03T15:19:27;20.30;45.80
14006;DHT22;7078;51.542;7.314;2023-05-03T15:21:53;20.40;45.00
14006;DHT22;7078;51.542;7.314;2023-05-03T15:24:19;20.50;45.20
14006;DHT22;7078;51.542;7.314;2023-05-03T15:26:46;20.90;43.10
14006;DHT22;7078;51.542;7.314;2023-05-03T15:29:12;21.90;42.50
14006;DHT22;7078;51.542;7.314;2023-05-03T15:31:38;23.10;40.10
14006;DHT22;7078;51.542;7.314;2023-05-03T15:34:04;24.10;38.40
14006;DHT22;7078;51.542;7.314;2023-05-03T15:36:30;25.30;37.40
14006;DHT22;7078;51.542;7.314;2023-05-03T15:38:56;26.20;35.70
14006;DHT22;7078;51.542;7.314;2023-05-03T15:41:22;26.90;34.10
14006;DHT22;7078;51.542;7.314;2023-05-03T15:43:48;27.00;33.40
14006;DHT22;7078;51.542;7.314;2023-05-03T15:46:14;26.90;32.80
14006;DHT22;7078;51.542;7.314;2023-05-03T15:48:40;27.20;31.90
14006;DHT22;7078;51.542;7.314;2023-05-03T15:51:06;27.20;32.40
14006;DHT22;7078;51.542;7.314;2023-05-03T15:53:31;27.40;32.10
14006;DHT22;7078;51.542;7.314;2023-05-03T15:55:57;27.60;33.10
14006;DHT22;7078;51.542;7.314;2023-05-03T15:58:24;27.90;32.10
14006;DHT22;7078;51.542;7.314;2023-05-03T16:00:50;28.00;30.70
14006;DHT22;7078;51.542;7.314;2023-05-03T16:03:16;28.50;30.00
14006;DHT22;7078;51.542;7.314;2023-05-03T16:05:42;28.90;29.30
14006;DHT22;7078;51.542;7.314;2023-05-03T16:08:09;28.60;29.20